Time;durP1;ratioP1;P1;durP2;ratioP2;P2;SDS_P1;SDS_P2;PMS_P1;PMS_P2;Temp;Humidity;BMP_temperature;BMP_pressure;BME280_temperature;BME280_humidity;BME280_pressure;Samples;Min_cycle;Max_cycle;Signal;HPM_P1;HPM_P2
2021/09/06 00:01:39;;;;;;;;;23.00;21.00;;;;;21.23;57.73;101315.91;5099706;27;45323;-61
2021/09/06 00:04:04;;;;;;;;;19.50;17.50;;;;;21.22;57.91;101308.91;5098625;27;69862;-62
2021/09/06 00:06:30;;;;;;;;;20.50;17.75;;;;;21.21;58.06;101309.94;5098657;27;69943;-61
2021/09/06 00:08:55;;;;;;;;;20.50;19.25;;;;;21.19;58.46;101310.13;5081375;27;45489;-61
2021/09/06 00:11:21;;;;;;;;;24.75;20.50;;;;;21.19;57.94;101314.63;5064390;27;45650;-61
2021/09/06 00:13:46;;;;;;;;;25.00;19.75;;;;;21.15;58.28;101318.69;5098603;27;72002;-61
2021/09/06 00:16:12;;;;;;;;;20.00;19.00;;;;;21.12;58.26;101322.56;5081324;27;45364;-60
2021/09/06 00:18:37;;;;;;;;;21.00;18.50;;;;;21.09;58.31;101320.28;5099655;27;45368;-62
2021/09/06 00:21:03;;;;;;;;;20.50;19.00;;;;;21.08;57.75;101318.63;5098276;27;63623;-61
2021/09/06 00:23:29;;;;;;;;;17.75;16.25;;;;;21.05;58.05;101314.47;5099485;27;45389;-60
2021/09/06 00:25:54;;;;;;;;;20.75;20.50;;;;;21.03;58.35;101318.34;5099266;27;45345;-61
2021/09/06 00:28:20;;;;;;;;;19.50;17.75;;;;;21.00;58.30;101316.03;5098920;27;45757;-61
2021/09/06 00:30:45;;;;;;;;;20.50;17.75;;;;;20.96;57.88;101314.75;5099326;27;45484;-61
2021/09/06 00:33:11;;;;;;;;;19.75;16.50;;;;;20.97;58.44;101319.91;5099250;27;46126;-61
2021/09/06 00:35:36;;;;;;;;;19.25;18.50;;;;;20.92;58.45;101314.31;5099031;27;45462;-60
2021/09/06 00:38:02;;;;;;;;;17.50;16.75;;;;;20.91;58.61;101312.66;5099427;27;45295;-61
2021/09/06 00:40:27;;;;;;;;;18.00;17.25;;;;;20.89;58.22;101315.50;5098953;27;45562;-61
2021/09/06 00:42:53;;;;;;;;;19.50;18.50;;;;;20.87;58.15;101314.84;5098294;27;66359;-61
2021/09/06 00:45:18;;;;;;;;;20.50;18.25;;;;;20.86;58.45;101313.19;5098344;27;66339;-61
2021/09/06 00:47:43;;;;;;;;;17.25;16.00;;;;;20.84;58.24;101309.06;5098455;27;45415;-60
2021/09/06 00:50:12;;;;;;;;;21.75;18.75;;;;;20.83;58.79;101308.22;5098278;27;67346;-62
2021/09/06 00:52:42;;;;;;;;;20.00;20.00;;;;;20.82;58.77;101314.59;5098864;27;45353;-60
2021/09/06 00:55:08;;;;;;;;;16.25;16.00;;;;;20.82;58.63;101317.25;5098871;27;45867;-61
2021/09/06 00:57:33;;;;;;;;;16.00;15.00;;;;;20.81;57.99;101315.59;5080873;27;45415;-62
2021/09/06 00:59:58;;;;;;;;;18.50;16.00;;;;;20.80;58.58;101316.59;5098030;27;61534;-61
2021/09/06 01:02:24;;;;;;;;;21.00;20.25;;;;;20.79;58.33;101320.28;5079648;27;70712;-60
2021/09/06 01:04:49;;;;;;;;;16.25;15.00;;;;;20.77;58.89;101316.97;5080443;27;47452;-61
2021/09/06 01:07:15;;;;;;;;;16.75;14.25;;;;;20.74;58.32;101323.50;5098988;27;45425;-61
2021/09/06 01:09:40;;;;;;;;;19.00;17.25;;;;;20.73;58.51;101324.50;5079561;27;67937;-61
2021/09/06 01:12:06;;;;;;;;;19.25;16.00;;;;;20.71;58.87;101325.69;5098039;27;57783;-60
2021/09/06 01:14:31;;;;;;;;;18.50;15.25;;;;;20.69;58.71;101319.69;5098601;27;45285;-61
2021/09/06 01:16:57;;;;;;;;;18.75;14.00;;;;;20.68;58.67;101323.38;5098666;27;45737;-61
2021/09/06 01:19:23;;;;;;;;;14.50;14.25;;;;;20.66;58.40;101318.25;5098588;27;45385;-60
2021/09/06 01:21:49;;;;;;;;;15.50;15.50;;;;;20.64;58.12;101322.13;5097335;27;72171;-60
2021/09/06 01:24:16;;;;;;;;;15.25;14.00;;;;;20.59;58.42;101310.16;5098471;27;45477;-62
2021/09/06 01:26:41;;;;;;;;;16.75;16.50;;;;;20.57;58.72;101320.19;5098491;27;45449;-61
2021/09/06 01:29:07;;;;;;;;;14.75;14.75;;;;;20.53;58.80;101320.72;5097524;27;45891;-61
2021/09/06 01:31:33;;;;;;;;;19.50;16.25;;;;;20.51;58.50;101318.25;5098314;27;45244;-61
2021/09/06 01:33:58;;;;;;;;;15.00;14.25;;;;;20.51;58.45;101312.91;5097584;27;62631;-61
2021/09/06 01:36:23;;;;;;;;;14.50;14.50;;;;;20.48;58.92;101315.94;5097598;27;61115;-60
2021/09/06 01:38:49;;;;;;;;;15.50;14.75;;;;;20.46;58.60;101312.63;5097439;27;70238;-61
2021/09/06 01:41:14;;;;;;;;;14.25;13.75;;;;;20.41;58.74;101321.16;5097471;27;62497;-61
2021/09/06 01:43:40;;;;;;;;;16.50;16.00;;;;;20.39;58.47;101317.03;5079489;27;55043;-61
2021/09/06 01:46:05;;;;;;;;;17.25;13.00;;;;;20.37;59.11;101321.72;5096911;27;53986;-61
2021/09/06 01:48:31;;;;;;;;;15.50;14.50;;;;;20.35;59.25;101321.06;5097056;27;66805;-61
2021/09/06 01:50:56;;;;;;;;;15.75;15.50;;;;;20.30;58.93;101322.44;5098024;27;45818;-61
2021/09/06 01:53:22;;;;;;;;;13.75;12.75;;;;;20.29;59.16;101326.13;5096974;27;69032;-60
2021/09/06 01:55:47;;;;;;;;;14.50;13.00;;;;;20.29;58.73;101334.13;5097625;27;45221;-60
2021/09/06 01:58:12;;;;;;;;;13.25;13.00;;;;;20.27;58.94;101328.13;5096916;27;68260;-60
2021/09/06 02:00:38;;;;;;;;;14.00;14.00;;;;;20.28;59.37;101332.47;5096823;27;68038;-61
2021/09/06 02:03:03;;;;;;;;;15.75;14.00;;;;;20.26;58.96;101337.16;5096866;27;71139;-61
2021/09/06 02:05:28;;;;;;;;;13.00;13.00;;;;;20.24;59.20;101331.16;5097227;27;64395;-60
2021/09/06 02:07:54;;;;;;;;;16.00;14.00;;;;;20.23;59.38;101336.69;5097243;27;58398;-61
2021/09/06 02:10:19;;;;;;;;;14.00;12.50;;;;;20.22;59.19;101338.53;5078731;27;64303;-62
2021/09/06 02:12:45;;;;;;;;;13.25;12.00;;;;;20.20;58.88;101332.53;5097645;27;45342;-61
2021/09/06 02:15:10;;;;;;;;;16.25;13.50;;;;;20.13;59.10;101326.28;5096961;27;66093;-61
2021/09/06 02:17:35;;;;;;;;;19.50;17.00;;;;;20.12;59.37;101324.63;5097581;27;45200;-61
2021/09/06 02:20:01;;;;;;;;;15.75;14.75;;;;;20.09;59.45;101324.97;5097481;27;45460;-61
2021/09/06 02:22:26;;;;;;;;;14.25;14.00;;;;;20.06;58.99;101328.00;5097178;27;45453;-61
2021/09/06 02:24:52;;;;;;;;;14.50;10.75;;;;;20.06;59.40;101330.69;5097525;27;45567;-61
2021/09/06 02:27:18;;;;;;;;;15.75;12.00;;;;;20.04;59.46;101328.16;5097605;27;45450;-61
2021/09/06 02:29:43;;;;;;;;;15.50;13.25;;;;;20.01;59.46;101334.72;5078954;27;46119;-60
2021/09/06 02:32:08;;;;;;;;;12.50;12.25;;;;;19.99;59.80;101342.06;5096534;27;67540;-61
2021/09/06 02:34:34;;;;;;;;;15.75;13.00;;;;;19.98;59.45;101336.88;5096581;27;65060;-60
2021/09/06 02:36:59;;;;;;;;;17.25;15.75;;;;;19.95;59.41;101338.09;5096927;27;55232;-60
2021/09/06 02:39:25;;;;;;;;;14.00;13.00;;;;;19.96;59.54;101336.22;5097070;27;45881;-61
2021/09/06 02:41:51;;;;;;;;;15.25;13.75;;;;;19.96;59.87;101338.91;5095731;27;62529;-60
2021/09/06 02:44:16;;;;;;;;;15.75;15.25;;;;;19.93;59.36;101334.78;5097382;27;45386;-60
2021/09/06 02:46:42;;;;;;;;;15.00;13.50;;;;;19.91;59.80;101336.78;5097234;27;45656;-61
2021/09/06 02:49:07;;;;;;;;;14.25;12.75;;;;;19.89;59.77;101337.94;5096286;27;68032;-61
2021/09/06 02:51:32;;;;;;;;;16.00;13.25;;;;;19.86;59.89;101342.63;5097114;27;45358;-61
2021/09/06 02:53:58;;;;;;;;;14.00;12.25;;;;;19.86;59.79;101349.78;5097248;27;45311;-60
2021/09/06 02:56:23;;;;;;;;;17.00;14.75;;;;;19.83;59.96;101345.66;5096192;27;67175;-60
2021/09/06 02:58:48;;;;;;;;;15.75;13.00;;;;;19.81;59.58;101347.66;5095939;27;72711;-60
2021/09/06 03:01:14;;;;;;;;;13.75;12.25;;;;;19.80;60.17;101347.81;5096084;27;66177;-60
2021/09/06 03:03:39;;;;;;;;;15.75;13.75;;;;;19.76;59.87;101344.69;5096442;27;57256;-60
2021/09/06 03:06:04;;;;;;;;;15.50;13.50;;;;;19.72;59.67;101346.88;5096096;27;66466;-60
2021/09/06 03:08:30;;;;;;;;;14.75;13.50;;;;;19.70;60.13;101342.75;5096862;27;45809;-60
2021/09/06 03:10:55;;;;;;;;;12.50;12.50;;;;;19.65;59.94;101348.59;5096797;27;45326;-60
2021/09/06 03:13:21;;;;;;;;;14.50;13.00;;;;;19.65;59.96;101345.91;5097061;27;45324;-60
2021/09/06 03:15:46;;;;;;;;;14.00;13.75;;;;;19.64;60.12;101348.78;5096313;27;55833;-61
2021/09/06 03:18:11;;;;;;;;;18.50;12.00;;;;;19.63;60.00;101347.13;5095969;27;66468;-61
2021/09/06 03:20:37;;;;;;;;;15.50;12.25;;;;;19.61;60.24;101335.78;5095416;27;45292;-61
2021/09/06 03:23:02;;;;;;;;;15.75;15.25;;;;;19.58;60.10;101337.81;5096069;27;60019;-61
2021/09/06 03:25:28;;;;;;;;;15.00;13.75;;;;;19.57;60.17;101338.00;5096635;27;45545;-60
2021/09/06 03:27:53;;;;;;;;;13.75;11.75;;;;;19.56;60.07;101339.00;5096518;27;45976;-60
2021/09/06 03:30:18;;;;;;;;;20.00;14.25;;;;;19.53;60.24;101337.50;5095686;27;65647;-60
2021/09/06 03:32:44;;;;;;;;;12.75;12.75;;;;;19.53;60.30;101336.69;5096272;27;45739;-60
2021/09/06 03:35:12;;;;;;;;;15.50;15.00;;;;;19.50;60.27;101334.38;5095693;27;69550;-60
2021/09/06 03:37:37;;;;;;;;;14.50;13.00;;;;;19.49;59.99;101338.84;5096242;27;45279;-61
2021/09/06 03:40:04;;;;;;;;;16.75;12.50;;;;;19.46;60.31;101341.88;5096583;27;45333;-61
2021/09/06 03:42:29;;;;;;;;;15.75;14.25;;;;;19.42;60.44;101336.06;5078254;27;45282;-61
2021/09/06 03:44:54;;;;;;;;;16.00;13.75;;;;;19.42;60.38;101340.56;5095675;27;67591;-61
2021/09/06 03:47:20;;;;;;;;;15.75;14.75;;;;;19.40;60.50;101334.56;5095720;27;67982;-60
2021/09/06 03:49:45;;;;;;;;;13.50;11.25;;;;;19.37;60.58;101337.59;5095641;27;64770;-61
2021/09/06 03:52:10;;;;;;;;;16.50;13.25;;;;;19.35;60.50;101335.09;5095590;27;63601;-60
2021/09/06 03:54:36;;;;;;;;;17.25;14.50;;;;;19.32;60.54;101332.78;5096455;27;45601;-61
2021/09/06 03:57:01;;;;;;;;;17.00;13.00;;;;;19.31;60.38;101339.13;5095207;27;72230;-60
2021/09/06 03:59:27;;;;;;;;;14.25;13.00;;;;;19.31;60.73;101338.31;5096151;27;45444;-59
2021/09/06 04:01:52;;;;;;;;;16.25;14.25;;;;;19.30;60.73;101332.13;5095344;27;63724;-60
2021/09/06 04:04:17;;;;;;;;;15.00;14.75;;;;;19.28;60.83;101329.66;5095248;27;68307;-60
2021/09/06 04:06:43;;;;;;;;;15.25;14.25;;;;;19.28;60.74;101334.13;5095933;27;50975;-61
2021/09/06 04:09:08;;;;;;;;;16.50;15.25;;;;;19.27;60.78;101328.00;5077016;27;61274;-61
2021/09/06 04:11:33;;;;;;;;;13.75;13.00;;;;;19.26;60.88;101328.16;5099827;27;45286;-60
2021/09/06 04:13:59;;;;;;;;;18.00;15.75;;;;;19.26;60.83;101333.47;5098986;27;59568;-60
2021/09/06 04:16:24;;;;;;;;;13.50;13.50;;;;;19.25;60.88;101334.50;5098762;27;66482;-60
2021/09/06 04:18:50;;;;;;;;;18.50;13.25;;;;;19.26;60.66;101333.47;5098621;27;66778;-60
2021/09/06 04:21:15;;;;;;;;;18.25;14.00;;;;;19.24;61.04;101330.16;5098760;27;60027;-61
2021/09/06 04:23:42;;;;;;;;;19.00;17.00;;;;;19.24;60.76;101343.47;5099375;27;45362;-60
2021/09/06 04:26:08;;;;;;;;;17.50;16.25;;;;;19.23;61.13;101339.16;5098729;27;46275;-60
2021/09/06 04:28:33;;;;;;;;;17.75;15.75;;;;;19.21;61.01;101336.69;5098297;27;72151;-60
2021/09/06 04:31:00;;;;;;;;;18.50;16.00;;;;;19.21;60.55;101343.81;5099280;27;45233;-61
2021/09/06 04:33:25;;;;;;;;;15.00;15.00;;;;;19.19;60.90;101348.50;5099125;27;45355;-61
2021/09/06 04:35:51;;;;;;;;;17.75;15.25;;;;;19.18;60.79;101354.84;5098025;27;70832;-60
2021/09/06 04:38:17;;;;;;;;;14.75;14.75;;;;;19.16;60.99;101351.50;5098955;27;45346;-61
2021/09/06 04:40:42;;;;;;;;;20.50;16.75;;;;;19.15;60.73;101352.50;5098290;27;62072;-61
2021/09/06 04:43:07;;;;;;;;;18.25;15.50;;;;;19.14;60.83;101359.69;5099123;27;45347;-61
2021/09/06 04:45:33;;;;;;;;;16.75;15.75;;;;;19.13;61.10;101358.84;5098579;27;51394;-60
2021/09/06 04:47:58;;;;;;;;;16.75;15.50;;;;;19.16;60.93;101367.50;5097992;27;68919;-61
2021/09/06 04:50:25;;;;;;;;;16.50;13.50;;;;;19.12;60.97;101362.50;5097982;27;68285;-61
2021/09/06 04:52:50;;;;;;;;;16.75;14.50;;;;;19.09;61.17;101370.84;5098741;27;45471;-61
2021/09/06 04:55:15;;;;;;;;;15.00;14.00;;;;;19.07;61.12;101369.38;5098685;27;45387;-60
2021/09/06 04:57:41;;;;;;;;;13.25;13.25;;;;;19.06;61.06;101367.69;5097862;27;67275;-60
2021/09/06 05:00:07;;;;;;;;;14.50;13.25;;;;;19.03;61.01;101374.22;5098818;27;45680;-60
2021/09/06 05:02:32;;;;;;;;;17.00;15.00;;;;;19.01;60.93;101378.03;5097991;27;45661;-60
2021/09/06 05:04:57;;;;;;;;;15.00;14.25;;;;;18.98;61.18;101376.56;5098040;27;59774;-60
2021/09/06 05:07:23;;;;;;;;;17.00;15.00;;;;;18.97;61.08;101380.22;5098269;27;55937;-60
2021/09/06 05:09:48;;;;;;;;;15.50;14.50;;;;;18.96;61.17;101378.56;5097975;27;60820;-60
2021/09/06 05:12:14;;;;;;;;;18.00;15.00;;;;;18.94;61.00;101385.88;5098803;27;45296;-60
2021/09/06 05:14:39;;;;;;;;;18.00;15.25;;;;;18.92;61.23;101383.34;5098322;27;45999;-60
2021/09/06 05:17:04;;;;;;;;;18.25;15.50;;;;;18.91;61.66;101387.00;5079426;27;64241;-61
2021/09/06 05:19:30;;;;;;;;;17.50;14.00;;;;;18.91;61.49;101391.53;5097722;27;63929;-60
2021/09/06 05:21:55;;;;;;;;;17.75;15.00;;;;;18.88;61.28;101395.34;5096509;27;57409;-60
2021/09/06 05:24:21;;;;;;;;;17.00;15.00;;;;;18.89;61.51;101401.50;5096938;27;62941;-61
2021/09/06 05:26:46;;;;;;;;;16.00;16.00;;;;;18.87;62.00;101404.34;5096693;27;67288;-60
2021/09/06 05:29:11;;;;;;;;;16.75;15.25;;;;;18.89;61.90;101409.50;5097458;27;45457;-61
2021/09/06 05:31:37;;;;;;;;;18.00;16.25;;;;;18.87;61.80;101408.84;5077926;27;67201;-59
2021/09/06 05:34:02;;;;;;;;;20.00;16.00;;;;;18.86;61.83;101421.31;5096685;27;65378;-60
2021/09/06 05:36:27;;;;;;;;;15.50;14.50;;;;;18.84;61.99;101418.81;5096546;27;65386;-60
2021/09/06 05:38:53;;;;;;;;;33.50;27.50;;;;;18.84;62.07;101424.16;5078529;27;68794;-60
2021/09/06 05:41:20;;;;;;;;;23.25;19.50;;;;;18.85;61.72;101427.63;5096980;27;60185;-59
2021/09/06 05:43:47;;;;;;;;;18.25;17.50;;;;;18.87;61.70;101428.28;5097944;27;46197;-60
2021/09/06 05:46:12;;;;;;;;;21.75;17.25;;;;;18.92;61.68;101425.13;5098044;27;45789;-60
2021/09/06 05:48:38;;;;;;;;;17.75;14.00;;;;;18.92;61.46;101431.28;5097465;27;55849;-61
2021/09/06 05:51:03;;;;;;;;;16.00;15.25;;;;;18.95;61.36;101430.94;5096890;27;69036;-60
2021/09/06 05:53:28;;;;;;;;;22.50;20.00;;;;;18.98;61.78;101432.50;5097633;27;46078;-60
2021/09/06 05:55:54;;;;;;;;;20.00;17.25;;;;;19.02;61.96;101432.97;5096878;27;60786;-60
2021/09/06 05:58:19;;;;;;;;;18.75;15.25;;;;;19.04;61.73;101439.81;5096915;27;67459;-60
2021/09/06 06:00:44;;;;;;;;;17.00;15.00;;;;;19.06;61.68;101445.78;5097053;27;60315;-60
2021/09/06 06:03:10;;;;;;;;;16.50;16.50;;;;;19.09;61.64;101449.94;5096753;27;70914;-60
2021/09/06 06:05:35;;;;;;;;;22.00;17.00;;;;;19.12;61.74;101444.25;5096552;27;72047;-59
2021/09/06 06:08:01;;;;;;;;;18.25;17.25;;;;;19.13;61.91;101449.41;5097602;27;45224;-60
2021/09/06 06:10:26;;;;;;;;;17.75;17.25;;;;;19.17;62.09;101449.06;5097778;27;45439;-59
2021/09/06 06:12:51;;;;;;;;;19.75;16.25;;;;;19.20;61.62;101449.56;5097043;27;61594;-60
2021/09/06 06:15:17;;;;;;;;;20.75;16.50;;;;;19.24;61.60;101450.06;5096620;27;68029;-60
2021/09/06 06:17:43;;;;;;;;;18.75;17.00;;;;;19.29;61.85;101450.38;5097096;27;54888;-60
2021/09/06 06:20:09;;;;;;;;;18.25;17.50;;;;;19.34;61.85;101456.03;5097686;27;45559;-60
2021/09/06 06:22:35;;;;;;;;;17.75;15.75;;;;;19.41;61.60;101456.16;5097027;27;45489;-61
2021/09/06 06:25:00;;;;;;;;;18.75;15.50;;;;;19.53;61.79;101453.97;5096893;27;55694;-60
2021/09/06 06:27:25;;;;;;;;;21.75;21.25;;;;;19.63;61.71;101451.91;5079167;27;45374;-61
2021/09/06 06:29:51;;;;;;;;;16.75;16.00;;;;;19.75;61.28;101456.84;5096365;27;70370;-59
2021/09/06 06:32:16;;;;;;;;;21.50;18.00;;;;;19.87;61.29;101456.28;5096917;27;45420;-61
2021/09/06 06:34:41;;;;;;;;;21.25;19.75;;;;;19.99;60.90;101463.91;5097419;27;45377;-59
2021/09/06 06:37:07;;;;;;;;;22.00;15.75;;;;;20.08;60.79;101462.03;5097279;27;45450;-60
2021/09/06 06:39:32;;;;;;;;;20.00;17.25;;;;;20.15;60.94;101461.16;5097337;27;45148;-62
2021/09/06 06:41:58;;;;;;;;;18.75;15.75;;;;;20.22;60.55;101469.28;5097180;27;46380;-59
2021/09/06 06:44:23;;;;;;;;;18.50;15.50;;;;;20.33;60.83;101464.53;5076223;27;45345;-59
2021/09/06 06:46:48;;;;;;;;;20.00;19.50;;;;;20.44;60.47;101470.28;5076297;28;45515;-60
2021/09/06 06:49:14;;;;;;;;;20.50;17.00;;;;;20.54;60.29;101470.06;5075101;28;70432;-61
2021/09/06 06:51:39;;;;;;;;;19.50;18.25;;;;;20.68;60.00;101480.94;5075241;28;46063;-60
2021/09/06 06:54:05;;;;;;;;;19.75;18.25;;;;;20.79;59.70;101483.22;5076545;28;45437;-60
2021/09/06 06:56:31;;;;;;;;;24.00;18.50;;;;;20.90;59.93;101479.28;5075881;28;45341;-61
2021/09/06 06:58:56;;;;;;;;;19.00;16.75;;;;;21.02;59.55;101475.13;5076244;28;45476;-60
2021/09/06 07:01:21;;;;;;;;;19.00;18.25;;;;;21.15;59.21;101485.22;5076464;28;46082;-60
2021/09/06 07:03:47;;;;;;;;;22.00;17.75;;;;;21.28;59.28;101481.91;5075808;28;68182;-61
2021/09/06 07:06:12;;;;;;;;;17.25;16.25;;;;;21.42;58.65;101488.25;5075995;28;63071;-60
2021/09/06 07:08:38;;;;;;;;;18.50;15.00;;;;;21.55;58.35;101490.25;5076605;28;45323;-60
2021/09/06 07:11:03;;;;;;;;;16.00;15.75;;;;;21.69;58.22;101487.78;5075700;28;66268;-60
2021/09/06 07:13:28;;;;;;;;;19.75;17.00;;;;;21.85;58.12;101492.09;5075682;28;65475;-62
2021/09/06 07:15:54;;;;;;;;;17.25;15.75;;;;;22.01;57.29;101488.34;5075818;28;63951;-60
2021/09/06 07:18:19;;;;;;;;;16.00;14.75;;;;;22.16;56.65;101488.34;5076246;28;52102;-61
2021/09/06 07:20:44;;;;;;;;;15.25;14.25;;;;;22.31;55.85;101493.63;5075265;28;69023;-61
2021/09/06 07:23:10;;;;;;;;;16.75;15.00;;;;;22.46;55.15;101485.56;5075759;28;62892;-60
2021/09/06 07:25:35;;;;;;;;;17.75;16.25;;;;;22.62;54.83;101490.66;5075719;28;61349;-61
2021/09/06 07:28:00;;;;;;;;;17.75;16.50;;;;;22.80;54.66;101495.53;5076461;28;45351;-61
2021/09/06 07:30:26;;;;;;;;;21.50;18.00;;;;;23.00;53.70;101494.03;5075326;28;70573;-61
2021/09/06 07:32:52;;;;;;;;;15.25;14.25;;;;;23.18;53.48;101497.03;5076262;28;45232;-61
2021/09/06 07:35:17;;;;;;;;;20.50;16.50;;;;;23.38;53.44;101497.19;5076297;28;45374;-61
2021/09/06 07:37:42;;;;;;;;;16.75;15.25;;;;;23.56;53.05;101496.66;5075482;28;62185;-61
2021/09/06 07:40:10;;;;;;;;;19.00;16.00;;;;;23.74;52.29;101500.66;5075973;28;45240;-61
2021/09/06 07:42:36;;;;;;;;;29.75;29.75;;;;;23.94;51.67;101507.94;5076251;28;45209;-61
2021/09/06 07:45:02;;;;;;;;;17.00;15.00;;;;;24.13;50.92;101509.03;5077555;28;45477;-60
2021/09/06 07:47:27;;;;;;;;;18.50;16.00;;;;;24.32;50.63;101507.44;5079708;28;45565;-60
2021/09/06 07:49:53;;;;;;;;;17.25;16.50;;;;;24.50;50.47;101509.53;5078460;28;75570;-60
2021/09/06 07:52:18;;;;;;;;;16.00;15.25;;;;;24.65;50.55;101514.69;5079654;28;45463;-61
2021/09/06 07:54:44;;;;;;;;;17.50;17.00;;;;;24.82;49.54;101515.13;5078657;28;69350;-60
2021/09/06 07:57:09;;;;;;;;;18.00;16.00;;;;;24.97;49.02;101514.91;5079160;28;48138;-62
2021/09/06 07:59:34;;;;;;;;;17.25;14.00;;;;;25.14;48.67;101520.69;5078558;28;65100;-61
2021/09/06 08:02:00;;;;;;;;;15.00;14.00;;;;;25.32;48.41;101525.41;5078307;28;66083;-61
2021/09/06 08:04:26;;;;;;;;;21.25;16.75;;;;;25.50;48.17;101532.00;5079533;28;45349;-61
2021/09/06 08:06:52;;;;;;;;;16.50;15.75;;;;;25.68;47.64;101527.81;5078750;28;45541;-61
2021/09/06 08:09:17;;;;;;;;;20.50;16.25;;;;;25.85;47.06;101534.38;5079054;28;45244;-61
2021/09/06 08:11:46;;;;;;;;;14.25;12.75;;;;;25.99;47.78;101542.38;5079197;28;45232;-61
2021/09/06 08:14:12;;;;;;;;;15.50;15.50;;;;;26.13;45.87;101537.75;5079346;28;45252;-60
2021/09/06 08:16:37;;;;;;;;;18.25;17.00;;;;;26.28;45.76;101542.88;5079413;28;45593;-61
2021/09/06 08:19:03;;;;;;;;;16.00;14.50;;;;;26.39;45.21;101533.25;5078517;28;65080;-61
2021/09/06 08:21:29;;;;;;;;;17.50;17.50;;;;;26.53;44.67;101537.53;5078912;28;45406;-62
2021/09/06 08:23:54;;;;;;;;;20.00;16.50;;;;;26.69;44.28;101533.47;5060793;28;45526;-61
2021/09/06 08:26:21;;;;;;;;;15.50;12.50;;;;;26.86;43.63;101532.94;5079115;28;45513;-61
2021/09/06 08:28:46;;;;;;;;;16.25;13.50;;;;;27.02;43.07;101532.38;5083593;27;45345;-61
2021/09/06 08:31:12;;;;;;;;;18.00;15.50;;;;;27.17;42.93;101534.72;5099230;27;45269;-61
2021/09/06 08:33:37;;;;;;;;;13.75;12.25;;;;;27.30;42.32;101544.53;5098411;27;61580;-61
2021/09/06 08:36:03;;;;;;;;;12.25;12.25;;;;;27.45;41.60;101540.66;5098068;27;67130;-61
2021/09/06 08:38:28;;;;;;;;;14.75;13.00;;;;;27.55;41.24;101538.28;5099059;27;48053;-61
2021/09/06 08:40:54;;;;;;;;;16.75;14.25;;;;;27.65;41.31;101537.75;5098114;27;70575;-61
2021/09/06 08:43:19;;;;;;;;;12.75;12.75;;;;;27.74;40.66;101544.50;5098778;27;54857;-61
2021/09/06 08:45:45;;;;;;;;;16.50;15.75;;;;;27.87;40.53;101537.25;5080831;27;45363;-61
2021/09/06 08:48:10;;;;;;;;;14.50;14.25;;;;;28.02;40.28;101536.88;5099153;27;46389;-61
2021/09/06 08:50:36;;;;;;;;;16.50;12.50;;;;;28.18;40.30;101541.63;5097218;27;45371;-60
2021/09/06 08:53:01;;;;;;;;;17.00;12.75;;;;;28.34;40.21;101532.06;5098946;27;45678;-61
2021/09/06 08:55:27;;;;;;;;;14.00;12.50;;;;;28.52;39.30;101541.97;5098661;27;45386;-61
2021/09/06 08:57:52;;;;;;;;;11.50;11.00;;;;;28.68;39.69;101540.47;5098717;27;46017;-60
2021/09/06 09:00:27;;;;;;;;;14.75;12.75;;;;;28.86;38.97;101542.28;5098283;27;54683;-60
2021/09/06 09:02:53;;;;;;;;;12.50;11.00;;;;;29.01;38.84;101546.41;5098098;27;45331;-61
2021/09/06 09:05:18;;;;;;;;;16.75;12.00;;;;;29.14;37.99;101545.31;5099298;27;45573;-61
2021/09/06 09:07:44;;;;;;;;;12.75;12.25;;;;;29.21;37.59;101548.72;5098169;27;66711;-61
2021/09/06 09:10:11;;;;;;;;;11.50;11.50;;;;;29.30;38.65;101544.59;5098029;27;71926;-62
2021/09/06 09:12:39;;;;;;;;;14.50;11.75;;;;;29.44;37.78;101549.78;5098947;27;45386;-62
2021/09/06 09:15:05;;;;;;;;;12.00;11.00;;;;;29.59;37.67;101546.59;5098479;27;56298;-62
2021/09/06 09:17:30;;;;;;;;;14.00;12.00;;;;;29.73;36.87;101557.97;5098806;27;46735;-62
2021/09/06 09:19:59;;;;;;;;;14.00;11.75;;;;;29.87;35.92;101550.38;5097867;27;69168;-61
2021/09/06 09:22:38;;;;;;;;;10.75;10.75;;;;;30.03;36.09;101549.63;5080337;27;45516;-62
2021/09/06 09:25:05;;;;;;;;;13.00;11.50;;;;;30.18;36.03;101537.44;5098801;27;45217;-61
2021/09/06 09:27:35;;;;;;;;;13.00;10.25;;;;;30.31;36.08;101537.09;5080166;27;46169;-61
2021/09/06 09:30:01;;;;;;;;;12.75;11.25;;;;;30.47;35.71;101542.78;5098450;27;45847;-62
2021/09/06 09:32:26;;;;;;;;;8.00;8.00;;;;;30.62;35.39;101548.50;5098667;27;45316;-61
2021/09/06 09:34:52;;;;;;;;;12.00;11.00;;;;;30.76;34.90;101548.13;5098407;27;45425;-60
2021/09/06 09:37:27;;;;;;;;;17.00;13.75;;;;;30.88;34.72;101546.16;5079934;27;45335;-61
2021/09/06 09:39:56;;;;;;;;;12.00;12.00;;;;;30.98;34.16;101544.66;5098206;27;45265;-61
2021/09/06 09:42:22;;;;;;;;;13.75;12.75;;;;;31.07;34.06;101548.59;5098249;27;45532;-61
2021/09/06 09:44:52;;;;;;;;;13.25;11.50;;;;;31.19;33.67;101534.94;5079049;27;65954;-61
2021/09/06 09:47:20;;;;;;;;;16.25;10.00;;;;;31.28;33.20;101532.59;5098191;27;46160;-61
2021/09/06 09:49:46;;;;;;;;;11.00;11.00;;;;;31.32;32.79;101531.03;5097495;27;45220;-60
2021/09/06 09:52:11;;;;;;;;;9.75;8.25;;;;;31.38;32.50;101540.88;5079815;27;45289;-61
2021/09/06 09:54:36;;;;;;;;;14.25;10.25;;;;;31.43;32.06;101538.25;5097850;27;48737;-61
2021/09/06 09:57:02;;;;;;;;;17.25;14.00;;;;;31.52;32.31;101531.28;5097709;27;45425;-61
2021/09/06 09:59:27;;;;;;;;;13.25;12.00;;;;;31.62;32.28;101535.22;5097724;27;45404;-62
2021/09/06 10:02:00;;;;;;;;;11.75;10.50;;;;;31.67;31.99;101540.69;5078688;27;64686;-60
2021/09/06 10:04:27;;;;;;;;;11.75;11.25;;;;;31.71;31.22;101524.69;5080617;27;45452;-62
2021/09/06 10:06:52;;;;;;;;;9.25;8.00;;;;;31.80;31.04;101534.06;5062437;27;47202;-60
2021/09/06 10:09:17;;;;;;;;;8.25;8.25;;;;;31.83;30.95;101528.94;5079051;27;45403;-61
2021/09/06 10:11:44;;;;;;;;;11.50;10.25;;;;;31.95;30.91;101530.69;5097329;27;53165;-61
2021/09/06 10:14:20;;;;;;;;;10.25;10.25;;;;;32.02;30.98;101536.75;5097225;27;45421;-61
2021/09/06 10:16:59;;;;;;;;;12.00;12.00;;;;;32.09;30.75;101540.06;5097174;27;46130;-61
2021/09/06 10:19:37;;;;;;;;;9.25;9.00;;;;;32.12;30.92;101539.56;5097497;27;45801;-61
2021/09/06 10:22:02;;;;;;;;;10.50;10.50;;;;;32.18;30.74;101534.97;5080133;27;45724;-61
2021/09/06 10:24:27;;;;;;;;;12.50;11.00;;;;;32.24;31.08;101535.88;5097643;27;45513;-61
2021/09/06 10:27:04;;;;;;;;;11.25;11.25;;;;;32.29;30.92;101537.84;5096656;27;63927;-62
2021/09/06 10:29:30;;;;;;;;;9.50;9.50;;;;;32.34;31.02;101522.38;5097377;27;45457;-62
2021/09/06 10:32:02;;;;;;;;;11.00;11.00;;;;;32.39;31.19;101524.31;5096765;27;60456;-61
2021/09/06 10:34:29;;;;;;;;;9.50;9.50;;;;;32.46;30.84;101529.53;5097424;27;45334;-60
2021/09/06 10:36:59;;;;;;;;;11.00;10.75;;;;;32.50;30.88;101530.66;5097004;27;46198;-61
2021/09/06 10:39:24;;;;;;;;;12.25;11.25;;;;;32.55;31.13;101530.69;5097313;27;45910;-61
2021/09/06 10:41:50;;;;;;;;;11.00;10.50;;;;;32.61;30.95;101520.66;5096855;27;51159;-60
2021/09/06 10:44:15;;;;;;;;;13.00;11.00;;;;;32.62;30.99;101523.13;5096949;27;45130;-62
2021/09/06 10:46:57;;;;;;;;;12.25;11.50;;;;;32.65;31.27;101524.50;5096893;27;46295;-62
2021/09/06 10:49:24;;;;;;;;;11.75;11.50;;;;;32.71;31.36;101521.56;5097114;27;45249;-61
2021/09/06 10:51:50;;;;;;;;;10.25;9.50;;;;;32.81;30.33;101514.56;5078970;27;45276;-61
2021/09/06 10:54:15;;;;;;;;;10.50;9.50;;;;;32.92;30.56;101520.91;5078187;27;61685;-61
2021/09/06 10:56:40;;;;;;;;;12.75;10.50;;;;;33.02;30.01;101512.78;5096901;27;45374;-61
2021/09/06 10:59:06;;;;;;;;;10.25;10.00;;;;;33.09;29.99;101520.72;5096889;27;45232;-61
2021/09/06 11:01:36;;;;;;;;;12.25;10.75;;;;;33.13;30.29;101521.81;5096181;27;56633;-61
2021/09/06 11:04:02;;;;;;;;;16.75;13.50;;;;;33.12;30.11;101514.75;5079774;27;45244;-61